Time;durP1;ratioP1;P1;durP2;ratioP2;P2;SDS_P1;SDS_P2;PMS_P1;PMS_P2;Temp;Humidity;BMP_temperature;BMP_pressure;BME280_temperature;BME280_humidity;BME280_pressure;Samples;Min_cycle;Max_cycle;Signal;HPM_P1;HPM_P2
2022/02/05 00:01:37;;;;;;;42.70;23.02;;;-5.50;97.50;;;;;;5013277;28;20382;-76
2022/02/05 00:04:08;;;;;;;39.65;24.30;;;-5.50;97.60;;;;;;5014237;28;20038;-77
2022/02/05 00:06:38;;;;;;;40.20;23.20;;;-5.50;97.60;;;;;;5014438;28;20029;-75
2022/02/05 00:12:13;;;;;;;38.83;21.95;;;-5.50;97.70;;;;;;5013429;28;20379;-77
2022/02/05 00:41:17;;;;;;;44.67;24.48;;;-5.60;97.80;;;;;;5032443;28;20116;-76
2022/02/05 00:43:53;;;;;;;51.35;28.45;;;-5.70;97.90;;;;;;5014393;28;20033;-78
2022/02/05 00:46:20;;;;;;;49.40;27.83;;;-5.60;97.90;;;;;;5032070;28;20531;-77
2022/02/05 00:48:46;;;;;;;49.17;28.00;;;-5.60;98.00;;;;;;5000976;28;20479;-77
2022/02/05 00:51:17;;;;;;;54.00;29.02;;;-5.60;98.00;;;;;;5012693;28;20121;-77
2022/02/05 00:53:46;;;;;;;56.05;28.83;;;-5.60;98.10;;;;;;5012436;28;20132;-78
2022/02/05 00:58:39;;;;;;;49.47;27.33;;;-5.50;98.20;;;;;;5032317;28;20518;-76
2022/02/05 01:01:09;;;;;;;56.28;30.17;;;-5.50;98.10;;;;;;5018563;28;20061;-77
2022/02/05 01:03:35;;;;;;;47.80;26.73;;;-5.40;98.10;;;;;;5012420;28;20101;-76
2022/02/05 01:06:02;;;;;;;44.50;26.38;;;-5.40;98.10;;;;;;5026949;28;20482;-77
2022/02/05 01:08:29;;;;;;;42.53;25.10;;;-5.40;98.20;;;;;;5012382;28;20490;-78
2022/02/05 01:10:55;;;;;;;43.58;26.17;;;-5.30;98.20;;;;;;5009833;28;20025;-76
2022/02/05 01:13:21;;;;;;;41.80;26.05;;;-5.30;98.20;;;;;;5031602;28;20022;-77
2022/02/05 01:18:49;;;;;;;45.95;26.67;;;-5.20;98.10;;;;;;4970454;28;20135;-77
2022/02/05 01:23:52;;;;;;;49.58;28.83;;;-5.10;97.90;;;;;;4966741;28;20019;-76
2022/02/05 01:26:28;;;;;;;45.38;24.98;;;-5.10;97.80;;;;;;4970513;28;20058;-76
2022/02/05 01:29:00;;;;;;;44.53;24.33;;;-5.10;97.80;;;;;;4970634;28;20602;-77
2022/02/05 01:31:31;;;;;;;48.30;27.20;;;-5.10;98.10;;;;;;4954060;28;20055;-76
2022/02/05 01:34:23;;;;;;;45.65;27.15;;;-5.10;97.80;;;;;;4970579;28;20038;-78
2022/02/05 01:48:54;;;;;;;41.47;26.15;;;-5.00;97.80;;;;;;4969932;28;20115;-77
2022/02/05 02:11:39;;;;;;;42.92;25.27;;;-4.80;97.00;;;;;;5031734;28;20079;-77
2022/02/05 02:22:26;;;;;;;43.50;24.27;;;-4.70;96.90;;;;;;5005137;28;20100;-77
2022/02/05 02:30:16;;;;;;;44.72;25.65;;;-4.70;96.70;;;;;;5037396;28;20037;-77
2022/02/05 02:32:46;;;;;;;48.03;25.85;;;-4.70;96.60;;;;;;5036870;28;20471;-77
2022/02/05 02:35:18;;;;;;;49.45;27.10;;;-4.70;96.60;;;;;;5034328;28;20482;-77
2022/02/05 02:37:55;;;;;;;43.75;22.83;;;-4.80;96.60;;;;;;5034383;28;20044;-77
2022/02/05 02:42:50;;;;;;;46.47;22.98;;;-4.90;96.70;;;;;;5035104;28;20117;-77
2022/02/05 02:45:16;;;;;;;48.25;27.83;;;-4.90;96.70;;;;;;5034926;28;20371;-78
2022/02/05 02:47:44;;;;;;;49.95;26.08;;;-4.90;96.70;;;;;;5035642;28;20044;-76
2022/02/05 02:50:18;;;;;;;43.92;27.52;;;-4.90;96.70;;;;;;5027209;28;20021;-76
2022/02/05 02:56:30;;;;;;;47.10;28.35;;;-5.00;96.80;;;;;;5024292;28;20033;-78
2022/02/05 02:58:24;;;;;;;47.72;28.38;;;-5.00;96.90;;;;;;5019074;28;20107;-77
2022/02/05 03:00:55;;;;;;;48.50;28.40;;;-4.90;97.00;;;;;;5020717;28;20030;-75
2022/02/05 03:03:21;;;;;;;47.88;27.55;;;-5.00;97.00;;;;;;5014938;28;20022;-77
2022/02/05 03:05:46;;;;;;;53.35;30.33;;;-5.00;97.10;;;;;;5019739;28;20144;-77
2022/02/05 03:08:12;;;;;;;48.85;27.52;;;-4.90;97.10;;;;;;5034346;28;20033;-77
2022/02/05 03:10:38;;;;;;;48.20;27.48;;;-4.90;97.00;;;;;;5033988;28;20025;-77
2022/02/05 03:13:04;;;;;;;48.42;25.88;;;-4.90;97.00;;;;;;5034279;28;20026;-77
2022/02/05 03:15:38;;;;;;;53.40;28.55;;;-4.80;97.10;;;;;;5034014;28;20394;-78
2022/02/05 03:18:13;;;;;;;48.00;27.45;;;-4.80;97.10;;;;;;5033806;28;20437;-76
2022/02/05 03:20:39;;;;;;;52.08;30.33;;;-4.80;97.00;;;;;;5033801;28;20108;-78
2022/02/05 03:23:05;;;;;;;51.38;29.80;;;-4.80;97.00;;;;;;5033595;28;20022;-77
2022/02/05 03:25:32;;;;;;;50.97;30.30;;;-4.80;97.00;;;;;;5034108;28;20068;-76
2022/02/05 03:27:58;;;;;;;53.10;28.70;;;-4.70;97.00;;;;;;5033535;28;20120;-77
2022/02/05 03:30:25;;;;;;;51.23;30.87;;;-4.70;96.90;;;;;;5014704;28;20049;-76
2022/02/05 03:32:50;;;;;;;49.75;26.23;;;-4.70;96.80;;;;;;5033354;28;20017;-76
2022/02/05 03:35:16;;;;;;;51.28;29.52;;;-4.80;96.70;;;;;;5033508;28;20033;-77
2022/02/05 03:37:43;;;;;;;52.00;27.48;;;-4.80;96.80;;;;;;5033700;28;20025;-76
2022/02/05 03:40:10;;;;;;;49.15;27.63;;;-4.80;96.80;;;;;;5033163;28;20100;-76
2022/02/05 03:42:36;;;;;;;46.70;26.42;;;-4.90;96.80;;;;;;5033941;28;20036;-76
2022/02/05 03:45:03;;;;;;;49.30;27.48;;;-4.80;96.90;;;;;;5034116;28;20029;-78
2022/02/05 03:47:32;;;;;;;;;;;-4.80;96.90;;;;;;5015696;28;20613;-76
2022/02/05 03:49:58;;;;;;;44.78;25.98;;;-4.90;96.80;;;;;;5033052;28;19916;-75
2022/02/05 03:52:24;;;;;;;49.22;28.15;;;-4.90;96.80;;;;;;5033010;28;20030;-77
2022/02/05 03:54:50;;;;;;;53.78;28.30;;;-4.90;96.80;;;;;;5019344;28;20041;-76
2022/02/05 03:57:16;;;;;;;52.60;26.63;;;-4.90;96.90;;;;;;5012884;28;20022;-76
2022/02/05 03:59:42;;;;;;;61.25;30.42;;;-4.90;96.90;;;;;;4997719;28;20032;-76
2022/02/05 04:02:08;;;;;;;43.22;25.75;;;-4.90;96.90;;;;;;5015017;28;20028;-77
2022/02/05 04:04:34;;;;;;;47.55;27.88;;;-4.90;97.00;;;;;;5027386;28;20021;-76
2022/02/05 04:07:01;;;;;;;55.72;30.08;;;-4.90;97.00;;;;;;5013159;28;20383;-76
2022/02/05 04:09:33;;;;;;;;;;;-4.90;97.00;;;;;;5013352;28;20018;-75
2022/02/05 04:17:28;;;;;;;46.38;25.73;;;-5.00;97.00;;;;;;5012910;28;20049;-76
2022/02/05 04:19:54;;;;;;;59.70;29.05;;;-4.90;96.90;;;;;;5012557;28;20022;-76
2022/02/05 04:22:20;;;;;;;61.63;31.25;;;-5.00;96.90;;;;;;5012705;28;20025;-76
2022/02/05 04:24:46;;;;;;;52.90;30.15;;;-4.90;97.00;;;;;;5012664;28;20034;-75
2022/02/05 04:27:13;;;;;;;56.15;29.73;;;-4.90;97.00;;;;;;5012419;28;20033;-75
2022/02/05 04:29:39;;;;;;;55.08;29.13;;;-4.90;96.90;;;;;;4994819;28;20080;-75
2022/02/05 04:32:05;;;;;;;50.95;28.20;;;-4.90;96.80;;;;;;5012437;28;20049;-76
2022/02/05 04:34:31;;;;;;;63.73;33.63;;;-4.90;96.80;;;;;;5012730;28;20014;-76
2022/02/05 04:37:00;;;;;;;54.88;28.48;;;-5.00;96.80;;;;;;5012637;28;20772;-77
2022/02/05 04:39:26;;;;;;;59.47;33.60;;;-5.00;96.70;;;;;;5012202;28;20025;-76
2022/02/05 04:42:04;;;;;;;64.75;33.17;;;-5.00;96.80;;;;;;5012059;28;20033;-76
2022/02/05 04:50:01;;;;;;;54.53;29.08;;;-5.10;96.70;;;;;;5013162;28;20029;-76
2022/02/05 04:57:36;;;;;;;49.88;27.13;;;-5.10;96.90;;;;;;5015652;28;20088;-76
2022/02/05 05:10:40;;;;;;;51.97;26.25;;;-5.40;96.80;;;;;;5012512;28;20483;-76
2022/02/05 05:13:12;;;;;;;59.63;32.42;;;-5.40;96.80;;;;;;5012391;28;20033;-77
2022/02/05 05:21:03;;;;;;;52.00;28.00;;;-5.50;96.80;;;;;;5012208;28;20092;-76
2022/02/05 05:23:29;;;;;;;57.65;27.40;;;-5.40;96.90;;;;;;5011859;28;20068;-76
2022/02/05 05:25:55;;;;;;;57.53;30.30;;;-5.50;96.80;;;;;;5011909;28;20070;-76
2022/02/05 05:28:20;;;;;;;44.00;26.63;;;-5.50;96.80;;;;;;5012061;28;20038;-77
2022/02/05 05:30:46;;;;;;;58.53;29.65;;;-5.50;96.90;;;;;;5011230;28;20041;-78
2022/02/05 05:33:12;;;;;;;54.05;28.52;;;-5.50;96.90;;;;;;5011700;28;20022;-77
2022/02/05 05:35:40;;;;;;;52.60;28.98;;;-5.50;96.90;;;;;;5011724;28;20018;-76
2022/02/05 05:38:06;;;;;;;53.67;27.63;;;-5.50;96.90;;;;;;5011819;28;20056;-78
2022/02/05 05:40:34;;;;;;;51.30;28.90;;;-5.50;97.20;;;;;;5011703;28;20052;-78
2022/02/05 05:43:04;;;;;;;51.20;28.08;;;-5.50;96.90;;;;;;5011761;28;20026;-76
2022/02/05 05:48:28;;;;;;;54.70;29.50;;;-5.40;97.00;;;;;;4992463;28;20136;-78
2022/02/05 05:50:59;;;;;;;43.53;23.98;;;-5.40;96.90;;;;;;5012169;28;20029;-79
2022/02/05 05:53:27;;;;;;;48.40;28.65;;;-5.40;96.80;;;;;;5016205;28;20028;-78
2022/02/05 05:55:53;;;;;;;44.42;24.50;;;-5.40;96.80;;;;;;5034960;28;20059;-78
2022/02/05 05:58:20;;;;;;;43.72;25.45;;;-5.40;96.80;;;;;;5035942;28;20060;-78
2022/02/05 06:00:49;;;;;;;50.60;27.40;;;-5.40;96.70;;;;;;5017538;28;20470;-78
2022/02/05 06:03:15;;;;;;;47.63;25.50;;;-5.40;96.80;;;;;;5017746;28;20076;-79
2022/02/05 06:05:41;;;;;;;46.17;23.65;;;-5.40;96.80;;;;;;5015284;28;20431;-78
2022/02/05 06:08:06;;;;;;;41.70;25.17;;;-5.40;96.80;;;;;;4997389;28;20033;-79
2022/02/05 06:10:33;;;;;;;54.75;25.92;;;-5.40;96.80;;;;;;5015471;28;20018;-77
2022/02/05 06:12:58;;;;;;;41.42;25.15;;;-5.40;96.80;;;;;;5014982;28;20506;-77
2022/02/05 06:15:24;;;;;;;46.22;24.13;;;-5.40;96.90;;;;;;5015204;28;20022;-78
2022/02/05 06:17:51;;;;;;;44.85;25.42;;;-5.30;96.80;;;;;;5015807;28;20034;-78
2022/02/05 06:20:18;;;;;;;40.65;22.65;;;-5.30;96.60;;;;;;5000334;28;20057;-78
2022/02/05 06:22:43;;;;;;;44.92;24.75;;;-5.30;96.40;;;;;;5034922;28;20443;-78
2022/02/05 06:25:10;;;;;;;43.50;24.10;;;-5.40;96.30;;;;;;5033272;28;20052;-80
2022/02/05 06:27:36;;;;;;;44.17;19.58;;;-5.50;96.30;;;;;;5014822;28;20038;-79
2022/02/05 06:30:04;;;;;;;42.90;23.88;;;-5.50;96.30;;;;;;5014838;28;20018;-78
2022/02/05 06:32:30;;;;;;;50.40;27.50;;;-5.60;96.30;;;;;;4997538;28;20041;-79
2022/02/05 06:34:55;;;;;;;44.15;24.85;;;-5.50;96.40;;;;;;4997314;28;20026;-79
2022/02/05 06:37:21;;;;;;;52.42;25.48;;;-5.50;96.50;;;;;;5014333;28;20030;-78
2022/02/05 06:39:47;;;;;;;40.45;20.30;;;-5.40;96.40;;;;;;5014688;28;20025;-80
2022/02/05 06:42:13;;;;;;;48.67;27.40;;;-5.40;96.30;;;;;;5014435;28;20022;-78
2022/02/05 06:44:39;;;;;;;48.72;25.13;;;-5.40;96.20;;;;;;5014189;28;20498;-79
2022/02/05 06:47:08;;;;;;;45.08;26.92;;;-5.50;96.20;;;;;;5014474;28;20033;-81
2022/02/05 06:49:34;;;;;;;48.72;25.00;;;-5.50;96.10;;;;;;5014361;28;20052;-79
2022/02/05 06:52:02;;;;;;;50.55;29.10;;;-5.50;96.10;;;;;;5014182;28;20026;-77
2022/02/05 06:54:28;;;;;;;50.33;28.40;;;-5.50;96.20;;;;;;5024273;28;20021;-76
2022/02/05 06:56:54;;;;;;;52.85;28.90;;;-5.50;96.30;;;;;;5034146;28;20410;-78
2022/02/05 06:59:20;;;;;;;51.03;27.02;;;-5.40;96.20;;;;;;5034266;28;20025;-78
2022/02/05 07:01:46;;;;;;;51.92;26.75;;;-5.30;96.20;;;;;;5030116;28;20092;-77
2022/02/05 07:04:11;;;;;;;49.47;29.55;;;-5.40;96.00;;;;;;5043084;28;20077;-77
2022/02/05 07:06:37;;;;;;;49.95;25.30;;;-5.30;96.00;;;;;;5022338;28;20441;-79
2022/02/05 07:09:04;;;;;;;50.30;27.50;;;-5.20;96.10;;;;;;5034591;28;20025;-77
2022/02/05 07:11:31;;;;;;;48.78;26.45;;;-5.20;95.80;;;;;;5015344;28;20022;-81
2022/02/05 07:13:58;;;;;;;56.83;29.90;;;-5.20;95.60;;;;;;5034495;28;20084;-78
2022/02/05 07:16:32;;;;;;;47.38;26.73;;;-5.10;95.70;;;;;;5034966;28;20148;-79
2022/02/05 07:21:35;;;;;;;51.10;25.73;;;-5.20;95.30;;;;;;5034835;28;20059;-78
2022/02/05 07:29:18;;;;;;;47.97;27.38;;;-5.20;95.50;;;;;;5014552;28;20074;-79
2022/02/05 07:31:50;;;;;;;51.85;27.83;;;-5.20;95.40;;;;;;5013903;28;20503;-77
2022/02/05 07:34:17;;;;;;;53.60;31.13;;;-5.20;95.30;;;;;;4997508;28;20029;-77
2022/02/05 07:36:44;;;;;;;55.95;28.52;;;-5.10;95.40;;;;;;5014002;28;20033;-77
2022/02/05 07:39:11;;;;;;;49.38;27.92;;;-5.00;95.40;;;;;;5013781;28;20495;-78
2022/02/05 07:41:39;;;;;;;53.07;28.57;;;-4.90;95.10;;;;;;5013633;28;20118;-80
2022/02/05 07:44:05;;;;;;;50.15;26.45;;;-4.90;95.00;;;;;;4995952;28;20036;-77
2022/02/05 07:46:31;;;;;;;60.53;29.53;;;-4.80;94.90;;;;;;4995821;28;20029;-78
2022/02/05 07:48:57;;;;;;;61.22;32.63;;;-4.70;94.50;;;;;;5013771;28;20490;-80
2022/02/05 07:51:23;;;;;;;53.45;30.73;;;-4.60;94.30;;;;;;4996445;28;20073;-79
2022/02/05 07:53:49;;;;;;;51.90;29.40;;;-4.60;94.00;;;;;;5015577;28;20029;-79
2022/02/05 07:56:15;;;;;;;50.78;27.85;;;-4.60;93.90;;;;;;5016652;28;20072;-78
2022/02/05 07:58:41;;;;;;;44.60;25.58;;;-4.60;93.80;;;;;;5018447;28;20049;-78
2022/02/05 08:01:07;;;;;;;50.42;29.42;;;-4.60;93.90;;;;;;5033364;28;20104;-81
2022/02/05 08:03:32;;;;;;;50.55;28.40;;;-4.60;93.80;;;;;;5023142;28;20056;-79
2022/02/05 08:06:00;;;;;;;54.40;25.67;;;-4.60;93.70;;;;;;5013609;28;20029;-78
2022/02/05 08:08:29;;;;;;;;;;;-4.70;93.40;;;;;;5014072;28;20034;-79
2022/02/05 08:10:59;;;;;;;57.33;29.63;;;-4.70;93.60;;;;;;5013780;28;19948;-80
2022/02/05 08:13:27;;;;;;;52.40;25.65;;;-4.70;93.40;;;;;;5013146;28;20379;-79
2022/02/05 08:15:57;;;;;;;52.80;29.27;;;-4.80;93.30;;;;;;5012216;28;20064;-79
2022/02/05 08:18:23;;;;;;;55.72;28.58;;;-4.80;93.40;;;;;;5012562;28;20030;-82
2022/02/05 08:20:49;;;;;;;44.17;26.15;;;-4.80;93.30;;;;;;5012478;28;20022;-79
2022/02/05 08:23:18;;;;;;;40.45;23.33;;;-4.90;93.20;;;;;;5012613;28;20033;-78
2022/02/05 08:25:44;;;;;;;36.40;22.50;;;-5.00;93.20;;;;;;5017399;28;20026;-78
2022/02/05 08:28:10;;;;;;;43.03;21.92;;;-4.90;93.30;;;;;;5012702;28;20029;-79
2022/02/05 08:30:35;;;;;;;44.55;25.48;;;-5.00;93.30;;;;;;5013688;28;20064;-78
2022/02/05 08:33:03;;;;;;;46.58;25.10;;;-4.90;93.30;;;;;;5029526;28;20022;-79
2022/02/05 08:35:28;;;;;;;;;;;-4.90;93.30;;;;;;5015466;28;20026;-79
2022/02/05 08:37:57;;;;;;;47.80;23.30;;;-4.70;93.40;;;;;;5016191;28;19964;-79
2022/02/05 08:40:23;;;;;;;38.42;21.25;;;-4.70;93.20;;;;;;5011978;28;20104;-78
2022/02/05 08:42:49;;;;;;;41.67;23.50;;;-4.70;93.00;;;;;;5019862;28;20029;-79
2022/02/05 08:45:15;;;;;;;43.75;23.35;;;-4.70;93.00;;;;;;5016058;28;20030;-79
2022/02/05 08:47:43;;;;;;;46.33;24.00;;;-4.70;93.10;;;;;;5010648;28;20037;-80
2022/02/05 08:50:18;;;;;;;43.63;23.98;;;-4.60;93.00;;;;;;5013523;28;20029;-79
2022/02/05 08:52:44;;;;;;;42.95;23.98;;;-4.70;92.90;;;;;;5012531;28;20030;-76
2022/02/05 08:55:10;;;;;;;42.35;23.20;;;-4.80;93.00;;;;;;5012071;28;20431;-77
2022/02/05 08:57:39;;;;;;;43.92;22.58;;;-4.60;93.30;;;;;;5009992;28;20423;-78
2022/02/05 09:00:12;;;;;;;42.72;25.63;;;-4.50;93.30;;;;;;5011364;28;20026;-79
2022/02/05 09:02:53;;;;;;;53.67;27.75;;;-4.40;93.30;;;;;;5011933;28;20022;-77
2022/02/05 09:05:42;;;;;;;39.08;20.05;;;-4.20;93.00;;;;;;5012319;28;20407;-81
2022/02/05 09:08:19;;;;;;;41.20;22.27;;;-4.10;92.60;;;;;;5013592;28;20134;-82
2022/02/05 09:11:01;;;;;;;46.47;23.30;;;-4.10;92.40;;;;;;5014481;28;20029;-77
2022/02/05 09:15:57;;;;;;;43.97;24.13;;;-4.00;92.60;;;;;;5044409;28;20025;-78
2022/02/05 09:18:23;;;;;;;39.10;22.10;;;-3.80;92.60;;;;;;5035658;28;20037;-81
2022/02/05 09:20:49;;;;;;;44.17;24.00;;;-3.50;92.40;;;;;;5032633;28;20036;-78
2022/02/05 09:23:15;;;;;;;35.40;21.40;;;-3.30;92.00;;;;;;5032332;28;20033;-80
2022/02/05 09:25:42;;;;;;;41.47;23.00;;;-3.10;92.00;;;;;;5031780;28;20028;-78
2022/02/05 09:28:09;;;;;;;41.63;21.80;;;-2.60;91.90;;;;;;5017898;28;20505;-81
2022/02/05 09:31:00;;;;;;;41.47;24.65;;;-2.10;91.40;;;;;;4998436;28;20392;-79
2022/02/05 09:33:26;;;;;;;35.17;18.48;;;-1.60;90.60;;;;;;5017018;28;20040;-79
2022/02/05 09:35:52;;;;;;;32.90;20.48;;;-0.90;89.10;;;;;;5015949;28;20096;-78
2022/02/05 09:38:17;;;;;;;35.05;20.85;;;-0.40;88.50;;;;;;5015892;28;20022;-79
2022/02/05 09:40:43;;;;;;;34.95;21.35;;;0.20;86.40;;;;;;5015286;28;20128;-81
2022/02/05 09:43:10;;;;;;;33.80;21.15;;;0.50;83.10;;;;;;4999472;28;20053;-80
2022/02/05 09:45:36;;;;;;;32.10;21.58;;;0.70;81.60;;;;;;5015433;28;20022;-79
2022/02/05 09:48:03;;;;;;;34.70;21.05;;;0.60;79.80;;;;;;4997960;28;20060;-80
2022/02/05 09:50:30;;;;;;;38.80;20.80;;;0.70;79.50;;;;;;5015721;28;20037;-78
2022/02/05 09:53:02;;;;;;;37.17;21.25;;;0.90;78.00;;;;;;5015598;28;20145;-79
2022/02/05 09:55:29;;;;;;;32.08;22.80;;;1.20;78.10;;;;;;5015774;28;20051;-79
2022/02/05 09:57:55;;;;;;;32.10;21.85;;;1.40;75.60;;;;;;5015595;28;20061;-80
2022/02/05 10:00:21;;;;;;;35.78;20.58;;;1.30;73.30;;;;;;4999750;28;20582;-79
2022/02/05 10:02:56;;;;;;;36.78;20.23;;;1.00;72.10;;;;;;5034083;28;20064;-79
2022/02/05 10:05:29;;;;;;;34.13;21.05;;;0.50;72.40;;;;;;5035146;28;20454;-78
2022/02/05 10:07:55;;;;;;;35.03;19.75;;;0.10;73.20;;;;;;5035069;28;20034;-81
2022/02/05 10:10:22;;;;;;;28.25;18.60;;;-0.10;74.60;;;;;;5033132;28;20081;-82
2022/02/05 10:13:07;;;;;;;32.08;20.52;;;-0.20;75.30;;;;;;5006372;28;20117;-82
2022/02/05 10:15:35;;;;;;;34.67;20.60;;;0.00;76.00;;;;;;5000485;28;20025;-83
2022/02/05 10:18:03;;;;;;;;;;;0.20;75.40;;;;;;5036972;28;20018;-82
2022/02/05 10:20:29;;;;;;;39.25;18.60;;;0.30;75.70;;;;;;5035890;28;20262;-81
2022/02/05 10:22:54;;;;;;;30.05;19.17;;;0.20;74.00;;;;;;5034211;28;20170;-82
2022/02/05 10:25:25;;;;;;;35.10;20.85;;;0.00;74.10;;;;;;5034899;28;20096;-81
2022/02/05 10:27:52;;;;;;;29.65;19.05;;;0.20;76.20;;;;;;5035136;28;20038;-81
2022/02/05 10:30:28;;;;;;;31.33;20.23;;;0.40;75.00;;;;;;5018327;28;20359;-85
2022/02/05 10:33:12;;;;;;;32.08;20.08;;;0.30;74.00;;;;;;5036469;28;20021;-83
2022/02/05 10:35:52;;;;;;;33.90;20.52;;;-0.20;73.00;;;;;;5044534;28;20033;-82
2022/02/05 10:38:47;;;;;;;35.92;21.48;;;-0.90;73.70;;;;;;5041321;28;20037;-86
2022/02/05 10:44:22;;;;;;;32.10;20.15;;;-1.70;76.60;;;;;;5036084;28;20078;-83
2022/02/05 10:46:53;;;;;;;36.60;22.02;;;-2.10;77.60;;;;;;5021259;28;20034;-82
2022/02/05 10:49:42;;;;;;;33.03;19.52;;;-2.40;78.60;;;;;;5015577;28;20021;-80
2022/02/05 10:52:08;;;;;;;37.38;20.17;;;-2.50;79.60;;;;;;5020993;28;20395;-81
2022/02/05 10:54:54;;;;;;;30.92;18.35;;;-2.70;80.00;;;;;;5025437;28;20029;-81
2022/02/05 10:58:14;;;;;;;31.88;20.13;;;-2.80;80.70;;;;;;5013987;28;20099;-82
2022/02/05 11:08:14;;;;;;;30.60;18.15;;;-3.10;82.60;;;;;;5017830;28;20041;-81
2022/02/05 11:13:23;;;;;;;30.85;17.58;;;-3.20;83.00;;;;;;5014090;28;20033;-81
2022/02/05 11:21:09;;;;;;;31.42;18.58;;;-3.10;83.60;;;;;;5022739;28;20041;-80
2022/02/05 11:23:35;;;;;;;35.45;19.85;;;-3.10;83.30;;;;;;5027445;28;20026;-79
2022/02/05 11:26:03;;;;;;;27.13;17.92;;;-3.20;83.20;;;;;;5023722;28;20021;-79
2022/02/05 11:28:46;;;;;;;30.95;17.02;;;-3.30;83.20;;;;;;5011472;28;20071;-80
2022/02/05 11:31:15;;;;;;;29.85;18.02;;;-3.30;83.30;;;;;;5031028;28;20042;-80
2022/02/05 11:33:41;;;;;;;29.08;17.13;;;-3.30;83.00;;;;;;5022344;28;20018;-83
2022/02/05 11:38:45;;;;;;;29.35;18.20;;;-3.20;82.80;;;;;;5041744;28;20181;-85
2022/02/05 11:41:44;;;;;;;26.20;15.65;;;-3.20;82.60;;;;;;5018368;28;20056;-83
2022/02/05 11:44:46;;;;;;;32.50;19.30;;;-3.20;82.30;;;;;;4994067;28;20117;-82
2022/02/05 11:47:11;;;;;;;25.08;15.02;;;-3.20;82.00;;;;;;5016104;28;20491;-82
2022/02/05 11:49:52;;;;;;;32.45;17.73;;;-3.10;82.20;;;;;;5033000;28;20040;-81
2022/02/05 11:52:44;;;;;;;31.25;16.75;;;-3.00;82.70;;;;;;5033654;28;20084;-82
2022/02/05 11:55:14;;;;;;;32.90;17.17;;;-2.90;81.90;;;;;;5007776;28;20030;-83
2022/02/05 11:58:01;;;;;;;28.48;17.90;;;-2.90;81.70;;;;;;5020099;28;20006;-80
2022/02/05 12:00:36;;;;;;;27.88;16.30;;;-2.90;81.30;;;;;;5013138;28;20071;-85
2022/02/05 12:03:28;;;;;;;28.48;17.00;;;-2.90;81.20;;;;;;5030036;28;20103;-83
2022/02/05 12:06:00;;;;;;;27.20;15.90;;;-2.90;81.70;;;;;;5001332;28;20034;-82
2022/02/05 12:08:28;;;;;;;25.80;16.00;;;-2.90;81.80;;;;;;5017538;28;20437;-85
2022/02/05 12:10:57;;;;;;;36.00;16.48;;;-2.70;81.70;;;;;;5017152;28;20034;-86
2022/02/05 12:13:39;;;;;;;30.17;15.02;;;-2.70;81.10;;;;;;5025544;28;20025;-83
2022/02/05 12:16:12;;;;;;;23.88;12.63;;;-2.60;80.50;;;;;;5015418;28;20033;-83
2022/02/05 12:19:15;;;;;;;23.20;12.52;;;-2.70;80.20;;;;;;5021454;28;20018;-81
2022/02/05 12:21:56;;;;;;;18.67;10.70;;;-2.60;79.90;;;;;;5012774;28;20072;-79
2022/02/05 12:24:38;;;;;;;20.52;9.90;;;-2.50;79.80;;;;;;5013985;28;20108;-81
2022/02/05 12:27:35;;;;;;;13.52;8.93;;;-2.50;79.10;;;;;;5013101;28;20076;-81
2022/02/05 12:30:29;;;;;;;19.05;11.77;;;-2.50;78.70;;;;;;5024031;28;20017;-82
2022/02/05 12:32:56;;;;;;;17.30;10.93;;;-2.50;78.20;;;;;;5033147;28;20091;-82
2022/02/05 12:35:24;;;;;;;20.90;12.35;;;-2.50;78.30;;;;;;5014266;28;20018;-81
2022/02/05 12:37:51;;;;;;;12.70;7.60;;;-2.50;78.30;;;;;;5014519;28;20475;-84
2022/02/05 12:40:17;;;;;;;10.70;6.63;;;-2.50;77.80;;;;;;5013099;28;20030;-81
2022/02/05 12:42:53;;;;;;;9.90;6.80;;;-2.60;77.50;;;;;;5013167;28;20030;-81
2022/02/05 12:45:24;;;;;;;7.72;4.85;;;-2.60;76.70;;;;;;5012743;28;20104;-81
2022/02/05 12:47:51;;;;;;;9.70;5.40;;;-2.60;76.50;;;;;;5013216;28;20041;-84
2022/02/05 12:50:18;;;;;;;13.73;7.47;;;-2.70;76.20;;;;;;5026709;28;20044;-86
2022/02/05 12:52:49;;;;;;;12.67;7.13;;;-2.80;76.30;;;;;;5012760;28;20026;-87
2022/02/05 12:55:27;;;;;;;9.48;6.35;;;-2.80;76.50;;;;;;5004110;28;20022;-89
2022/02/05 12:58:00;;;;;;;13.18;6.57;;;-2.80;76.50;;;;;;5020341;28;20029;-89
2022/02/05 13:00:26;;;;;;;11.93;7.43;;;-2.80;76.70;;;;;;5020537;28;20060;-88
2022/02/05 13:02:57;;;;;;;16.65;7.32;;;-2.80;76.50;;;;;;5020857;28;20021;-87
2022/02/05 13:05:33;;;;;;;11.93;8.30;;;-2.90;76.60;;;;;;5020987;28;20101;-89
2022/02/05 13:08:05;;;;;;;20.90;9.25;;;-3.00;77.00;;;;;;5037893;28;20046;-93
2022/02/05 13:10:42;;;;;;;16.80;9.07;;;-3.10;77.70;;;;;;5004102;28;20037;-93
2022/02/05 13:13:08;;;;;;;12.82;7.95;;;-3.00;78.00;;;;;;5013306;28;20050;-88
2022/02/05 13:15:35;;;;;;;16.40;9.40;;;-3.10;78.20;;;;;;5012615;28;20032;-89
2022/02/05 13:29:13;;;;;;;16.17;9.98;;;-3.40;79.60;;;;;;5026746;28;20351;-87
2022/02/05 13:34:36;;;;;;;18.25;9.63;;;-3.60;79.70;;;;;;5032049;28;20037;-90
2022/02/05 13:37:13;;;;;;;15.85;8.70;;;-3.60;80.30;;;;;;5035968;28;20073;-91
2022/02/05 13:39:58;;;;;;;17.35;11.23;;;-3.70;80.30;;;;;;5036999;28;20041;-91
2022/02/05 13:42:28;;;;;;;13.90;9.00;;;-3.70;80.70;;;;;;5033266;28;20125;-89
2022/02/05 13:45:11;;;;;;;16.20;9.23;;;-3.80;80.90;;;;;;5027452;28;20014;-91
2022/02/05 13:47:57;;;;;;;19.05;10.98;;;-3.90;81.10;;;;;;5022523;28;20356;-90
2022/02/05 13:50:26;;;;;;;12.07;8.73;;;-3.90;81.50;;;;;;5035974;28;20040;-91
2022/02/05 13:52:58;;;;;;;16.30;8.05;;;-4.00;81.50;;;;;;5005715;28;20046;-91
2022/02/05 13:55:44;;;;;;;15.82;9.13;;;-4.10;81.60;;;;;;5010713;28;20420;-94
2022/02/05 13:58:12;;;;;;;;;;;-4.20;81.70;;;;;;4998226;28;20046;-92
2022/02/05 14:00:47;;;;;;;14.75;8.85;;;-4.20;81.90;;;;;;5017120;28;19910;-88
2022/02/05 14:03:15;;;;;;;10.98;7.07;;;-4.30;82.00;;;;;;5005010;28;20096;-89
2022/02/05 14:06:05;;;;;;;16.88;9.15;;;-4.40;82.30;;;;;;5015179;28;20105;-87
2022/02/05 14:08:37;;;;;;;18.48;9.80;;;-4.50;83.30;;;;;;4998830;28;20030;-88
2022/02/05 14:11:08;;;;;;;8.32;6.03;;;-4.50;83.20;;;;;;5013666;28;20414;-87
2022/02/05 14:13:35;;;;;;;16.27;9.20;;;-4.50;83.50;;;;;;5020010;28;20026;-87
2022/02/05 14:16:04;;;;;;;20.83;9.90;;;-4.60;83.70;;;;;;5028896;28;20036;-91
2022/02/05 14:18:35;;;;;;;15.68;9.30;;;-4.70;84.00;;;;;;5012183;28;20114;-91
2022/02/05 14:21:03;;;;;;;22.75;12.60;;;-4.70;84.40;;;;;;5012907;28;20076;-91
2022/02/05 14:23:32;;;;;;;16.90;10.02;;;-4.80;84.80;;;;;;5029034;28;20022;-91
2022/02/05 14:26:14;;;;;;;13.70;7.07;;;-4.80;85.00;;;;;;5024672;28;20025;-88
2022/02/05 14:28:51;;;;;;;21.58;9.07;;;-4.80;85.20;;;;;;5017065;28;20044;-91
2022/02/05 14:31:29;;;;;;;18.40;9.57;;;-4.80;85.40;;;;;;5020750;28;20045;-92
2022/02/05 14:42:14;;;;;;;18.63;11.50;;;-5.00;87.20;;;;;;5025185;28;20056;-85
2022/02/05 14:44:40;;;;;;;17.58;10.98;;;-5.00;87.40;;;;;;5006718;28;20033;-87
2022/02/05 14:47:07;;;;;;;23.02;11.60;;;-5.10;88.00;;;;;;5018918;28;20026;-89
2022/02/05 14:49:33;;;;;;;23.05;12.57;;;-5.10;88.00;;;;;;5020454;28;20017;-86
2022/02/05 14:52:01;;;;;;;24.15;10.50;;;-5.10;88.70;;;;;;5036054;28;20033;-84
2022/02/05 14:54:29;;;;;;;18.60;10.15;;;-5.10;89.10;;;;;;5035654;28;20072;-86
2022/02/05 14:56:55;;;;;;;19.85;10.75;;;-5.20;89.30;;;;;;5017366;28;20061;-86
2022/02/05 14:59:21;;;;;;;14.50;6.67;;;-5.20;89.40;;;;;;5019168;28;20064;-86
2022/02/05 15:01:47;;;;;;;17.55;10.90;;;-5.20;89.80;;;;;;5018872;28;20270;-87
2022/02/05 15:04:13;;;;;;;18.45;8.70;;;-5.30;90.30;;;;;;5026974;28;20025;-87
2022/02/05 15:06:41;;;;;;;16.75;11.15;;;-5.30;90.10;;;;;;5032068;28;20029;-87
2022/02/05 15:09:07;;;;;;;23.55;11.68;;;-5.30;90.10;;;;;;5043129;28;20076;-87
2022/02/05 15:11:34;;;;;;;32.88;13.80;;;-5.30;90.30;;;;;;5022145;28;20050;-90
2022/02/05 15:14:02;;;;;;;23.05;13.07;;;-5.30;90.40;;;;;;5018571;28;20044;-87
2022/02/05 15:16:30;;;;;;;19.75;11.18;;;-5.40;90.30;;;;;;5019150;28;20022;-90
2022/02/05 15:18:57;;;;;;;13.23;8.00;;;-5.40;90.40;;;;;;5031336;28;20033;-91
2022/02/05 15:21:26;;;;;;;;;;;-5.40;90.30;;;;;;5031506;28;20102;-88
2022/02/05 15:23:53;;;;;;;19.27;12.18;;;-5.40;90.30;;;;;;5005495;28;19910;-88
2022/02/05 15:26:20;;;;;;;16.98;10.70;;;-5.40;90.30;;;;;;5018930;28;20387;-88
2022/02/05 15:28:47;;;;;;;18.92;11.60;;;-5.50;90.40;;;;;;5017014;28;20034;-86
2022/02/05 15:31:14;;;;;;;16.38;9.07;;;-5.50;90.50;;;;;;4999706;28;20077;-90
2022/02/05 15:33:45;;;;;;;23.08;10.52;;;-5.50;90.50;;;;;;5031039;28;20026;-88
2022/02/05 15:36:14;;;;;;;21.13;10.15;;;-5.50;90.60;;;;;;5022990;28;20443;-87
2022/02/05 15:44:06;;;;;;;26.17;13.68;;;-5.60;90.60;;;;;;5017133;28;20033;-86
2022/02/05 15:46:32;;;;;;;23.75;14.32;;;-5.50;90.70;;;;;;5023641;28;20098;-86
2022/02/05 15:48:58;;;;;;;22.70;12.63;;;-5.60;90.70;;;;;;5029302;28;20033;-84